Terminal Aerodrome Forecast
Issued by NWS Charleston, WV

Home | Current Version | Previous Version | Text Only | Print | Product List | Glossary On
Versions: 1 2 3 4 5 6 7 8 9 10 11 12 13 14 15 16 17 18 19 20 21 22 23 24
000
FTUS41 KRLX 311737
TAFEKN
TAF
KEKN 311737Z 3118/0118 VRB05KT P6SM SCT040
     FM010300 00000KT 4SM BR SCT040
     FM010400 00000KT 1 1/2SM BR FEW040
     FM010500 00000KT 1/2SM FG VV001
     FM011200 00000KT 3SM BR SCT040
     FM011300 00000KT P6SM SCT040=

USA.gov is the U.S. government's official web portal to all federal, state and local government web resources and services.